Rouseville, Pennsylvania
Current Conditions -  °F | °C
As of 7:15 PM on Wednesday 28 Jan 2015 (Local Time) from KFKL Reporting Station
Clear Clear  
Wind Chill:   Ceiling: Unl
Heat Index: 16°   Visibility: 10mi
Dew Point:   Wind: 5mph
Humidity: 49%   Direction: 220°SW
Pressure: 30.28"   Gusts: NA
Location:  41.47°N, 79.69°W
Report Text: KFKL 290015Z AUTO 22004KT 10SM CLR M09/M18 A3028 RMK AO1
Loading
Personal Weather Stations






























Interactive Weather Map New forecast layout! Learn more

10-Day Weather Forecast

Advertisements
Track Severe Weather on mobile